createdAt,value
2018-02-19T00:01:19.500Z,10.63
2018-02-19T00:03:47.004Z,10.37
2018-02-19T00:06:14.528Z,11.03
2018-02-19T00:08:42.720Z,12.23
2018-02-19T00:11:10.168Z,12.10
2018-02-19T00:13:37.685Z,10.23
2018-02-19T00:16:05.248Z,10.60
2018-02-19T00:18:32.799Z,10.13
2018-02-19T00:21:00.247Z,11.03
2018-02-19T00:23:27.700Z,11.50
2018-02-19T00:25:55.152Z,10.53
2018-02-19T00:28:22.647Z,11.80
2018-02-19T00:30:50.096Z,10.30
2018-02-19T00:33:17.537Z,11.53
2018-02-19T00:35:45.048Z,10.43
2018-02-19T00:38:12.460Z,9.80
2018-02-19T00:40:39.952Z,10.27
2018-02-19T00:43:07.388Z,8.37
2018-02-19T00:45:34.868Z,10.80
2018-02-19T00:48:02.308Z,10.13
2018-02-19T00:50:29.751Z,11.90
2018-02-19T00:52:57.259Z,11.20
2018-02-19T00:55:24.723Z,11.87
2018-02-19T00:57:52.156Z,10.73
2018-02-19T01:00:19.606Z,11.10
2018-02-19T01:02:47.044Z,10.03
2018-02-19T01:05:15.265Z,12.70
2018-02-19T01:07:42.703Z,11.23
2018-02-19T01:10:10.157Z,11.80
2018-02-19T01:12:38.395Z,10.80
2018-02-19T01:15:05.831Z,10.03
2018-02-19T01:17:33.293Z,12.10
2018-02-19T01:20:00.824Z,12.87
2018-02-19T01:22:29.042Z,10.93
2018-02-19T01:24:56.507Z,11.67
2018-02-19T01:27:24.019Z,10.37
2018-02-19T01:29:52.313Z,13.37
2018-02-19T01:32:19.819Z,11.83
2018-02-19T01:34:47.272Z,10.97
2018-02-19T01:37:14.736Z,11.27
2018-02-19T01:39:42.220Z,12.10
2018-02-19T01:42:09.705Z,12.57
2018-02-19T01:44:37.908Z,11.70
2018-02-19T01:47:05.392Z,11.60
2018-02-19T01:49:32.948Z,10.80
2018-02-19T01:52:00.388Z,12.53
2018-02-19T01:54:27.828Z,10.90
2018-02-19T01:56:56.045Z,10.60
2018-02-19T01:59:23.564Z,10.40
2018-02-19T02:01:51.012Z,10.53
2018-02-19T02:04:18.543Z,11.43
2018-02-19T02:06:46.008Z,10.60
2018-02-19T02:09:14.128Z,11.50
2018-02-19T02:11:41.648Z,11.23
2018-02-19T02:14:09.083Z,11.20
2018-02-19T02:16:36.535Z,9.57
2018-02-19T02:19:04.028Z,12.10
2018-02-19T02:21:31.483Z,12.33
2018-02-19T02:23:58.919Z,9.77
2018-02-19T02:26:26.480Z,11.83
2018-02-19T02:28:53.922Z,10.03
2018-02-19T02:31:22.132Z,11.83
2018-02-19T02:33:49.622Z,11.10
2018-02-19T02:36:17.093Z,11.00
2018-02-19T02:38:44.654Z,11.00
2018-02-19T02:41:12.103Z,12.20
2018-02-19T02:43:39.564Z,12.17
2018-02-19T02:46:07.176Z,12.47
2018-02-19T02:48:35.393Z,12.33
2018-02-19T02:51:02.819Z,11.53
2018-02-19T02:53:31.048Z,12.17
2018-02-19T02:55:58.489Z,10.80
2018-02-19T02:58:25.940Z,11.87
2018-02-19T03:00:53.376Z,12.83
2018-02-19T03:03:21.607Z,10.97
2018-02-19T03:05:49.079Z,12.33
2018-02-19T03:08:16.556Z,12.17
2018-02-19T03:10:43.996Z,11.30
2018-02-19T03:13:11.496Z,12.23
2018-02-19T03:15:39.020Z,11.97
2018-02-19T03:18:06.498Z,10.47
2018-02-19T03:20:33.936Z,10.80
2018-02-19T03:23:01.392Z,12.03
2018-02-19T03:25:28.848Z,12.00
2018-02-19T03:27:56.336Z,12.17
2018-02-19T03:30:23.784Z,11.03
2018-02-19T03:32:51.236Z,11.30
2018-02-19T03:35:18.719Z,10.70
2018-02-19T03:37:46.171Z,14.10
2018-02-19T03:40:13.610Z,11.80
2018-02-19T03:42:41.132Z,11.60
2018-02-19T03:45:09.394Z,12.03
2018-02-19T03:47:36.832Z,12.03
2018-02-19T03:50:04.279Z,12.73
2018-02-19T03:52:31.744Z,10.13
2018-02-19T03:54:59.183Z,10.93
2018-02-19T03:57:26.636Z,13.70
2018-02-19T03:59:54.840Z,12.50
2018-02-19T04:02:22.352Z,12.13
2018-02-19T04:04:49.784Z,11.57
2018-02-19T04:07:17.240Z,12.33
2018-02-19T04:09:44.708Z,10.83
2018-02-19T04:12:12.168Z,11.77
2018-02-19T04:14:39.620Z,11.20
2018-02-19T04:17:07.119Z,12.00
2018-02-19T04:19:34.560Z,14.33
2018-02-19T04:22:02.000Z,17.00
2018-02-19T04:24:29.524Z,15.77
2018-02-19T04:26:57.731Z,14.60
2018-02-19T04:29:25.188Z,11.40
2018-02-19T04:31:52.678Z,14.80
2018-02-19T04:34:20.141Z,15.27
2018-02-19T04:36:47.601Z,15.90
2018-02-19T04:39:15.169Z,15.03
2018-02-19T04:41:42.735Z,15.87
2018-02-19T04:44:11.103Z,18.43
2018-02-19T04:46:39.424Z,19.97
2018-02-19T04:49:06.892Z,17.50
2018-02-19T04:51:35.144Z,17.50
2018-02-19T04:54:02.592Z,18.87
2018-02-19T04:56:30.052Z,15.97
2018-02-19T04:58:57.495Z,13.97
2018-02-19T05:01:24.995Z,15.20
2018-02-19T05:03:53.978Z,16.80
2018-02-19T05:06:21.407Z,15.70
2018-02-19T05:08:50.515Z,15.83
2018-02-19T05:11:17.936Z,15.33
2018-02-19T05:13:46.175Z,15.60
2018-02-19T05:16:13.760Z,14.20
2018-02-19T05:18:41.210Z,16.20
2018-02-19T05:21:08.656Z,15.17
2018-02-19T05:23:36.275Z,14.90
2018-02-19T05:26:04.578Z,14.10
2018-02-19T05:28:32.002Z,16.20
2018-02-19T05:31:00.204Z,16.37
2018-02-19T05:33:27.688Z,14.73
2018-02-19T05:35:55.192Z,15.60
2018-02-19T05:38:22.736Z,16.00
2018-02-19T05:40:50.188Z,16.60
2018-02-19T05:43:17.705Z,16.00
2018-02-19T05:45:45.900Z,15.37
2018-02-19T05:48:13.348Z,16.67
2018-02-19T05:50:41.568Z,15.80
2018-02-19T05:53:09.136Z,14.80
2018-02-19T05:55:36.572Z,17.70
2018-02-19T05:58:04.060Z,16.60
2018-02-19T06:00:31.493Z,17.70
2018-02-19T06:02:58.985Z,16.63
2018-02-19T06:05:26.431Z,14.97
2018-02-19T06:07:53.885Z,14.80
2018-02-19T06:10:21.332Z,16.83
2018-02-19T06:12:48.830Z,15.33
2018-02-19T06:15:16.304Z,15.00
2018-02-19T06:17:43.852Z,16.70
2018-02-19T06:20:11.398Z,17.10
2018-02-19T06:22:38.891Z,15.57
2018-02-19T06:25:06.440Z,15.50
2018-02-19T06:27:33.876Z,15.50
2018-02-19T06:30:01.323Z,14.90
2018-02-19T06:32:28.759Z,14.20
2018-02-19T06:34:56.203Z,15.87
2018-02-19T06:37:23.692Z,14.70
2018-02-19T06:39:51.930Z,14.20
2018-02-19T06:42:19.365Z,15.30
2018-02-19T06:44:46.849Z,14.70
2018-02-19T06:47:14.280Z,15.70
2018-02-19T06:49:41.771Z,16.67
2018-02-19T06:52:09.244Z,13.80
2018-02-19T06:54:36.691Z,14.50
2018-02-19T06:57:04.153Z,14.87
2018-02-19T06:59:31.623Z,14.30
2018-02-19T07:01:59.080Z,14.83
2018-02-19T07:04:26.535Z,13.83
2018-02-19T07:06:53.982Z,13.17
2018-02-19T07:09:21.428Z,14.87
2018-02-19T07:11:48.860Z,15.47
2018-02-19T07:14:17.073Z,14.73
2018-02-19T07:16:44.513Z,12.93
2018-02-19T07:19:12.977Z,14.53
2018-02-19T07:21:40.608Z,14.57
2018-02-19T07:24:08.056Z,12.40
2018-02-19T07:26:35.549Z,13.43
2018-02-19T07:29:02.984Z,14.80
2018-02-19T07:31:30.425Z,12.83
2018-02-19T07:33:57.864Z,13.37
2018-02-19T07:36:26.072Z,12.87
2018-02-19T07:38:53.507Z,14.70
2018-02-19T07:41:21.721Z,12.70
2018-02-19T07:43:49.147Z,12.80
2018-02-19T07:46:17.391Z,12.33
2018-02-19T07:48:44.918Z,15.17
2018-02-19T07:51:12.401Z,12.27
2018-02-19T07:53:39.836Z,12.33
2018-02-19T07:56:07.284Z,10.60
2018-02-19T07:58:34.720Z,11.77
2018-02-19T08:01:02.955Z,13.10
2018-02-19T08:03:30.395Z,12.20
2018-02-19T08:05:57.888Z,13.20
2018-02-19T08:08:25.347Z,14.30
2018-02-19T08:10:52.807Z,12.50
2018-02-19T08:13:20.248Z,15.40
2018-02-19T08:15:47.704Z,15.53
2018-02-19T08:18:15.145Z,13.60
2018-02-19T08:20:43.368Z,17.87
2018-02-19T08:23:10.817Z,13.10
2018-02-19T08:25:38.280Z,15.10
2018-02-19T08:28:05.752Z,14.20
2018-02-19T08:30:33.224Z,14.60
2018-02-19T08:33:00.664Z,13.53
2018-02-19T08:35:28.138Z,15.10
2018-02-19T08:37:55.600Z,14.53
2018-02-19T08:40:23.068Z,16.60
2018-02-19T08:42:50.506Z,12.87
2018-02-19T08:45:17.952Z,15.10
2018-02-19T08:47:45.392Z,16.77
2018-02-19T08:50:13.607Z,15.17
2018-02-19T08:52:41.059Z,13.83
2018-02-19T08:55:08.504Z,13.13
2018-02-19T08:57:35.939Z,13.00
2018-02-19T09:00:03.386Z,12.80
2018-02-19T09:02:30.820Z,13.70
2018-02-19T09:04:58.264Z,13.10
2018-02-19T09:07:25.748Z,15.17
2018-02-19T09:09:53.236Z,13.90
2018-02-19T09:12:20.676Z,13.50
2018-02-19T09:14:48.128Z,13.17
2018-02-19T09:17:15.604Z,13.43
2018-02-19T09:19:43.057Z,12.80
2018-02-19T09:22:10.500Z,13.70
2018-02-19T09:24:37.941Z,13.30
2018-02-19T09:27:05.383Z,14.43
2018-02-19T09:29:33.586Z,12.27
2018-02-19T09:32:01.075Z,12.27
2018-02-19T09:34:28.512Z,12.23
2018-02-19T09:36:56.016Z,12.80
2018-02-19T09:39:23.452Z,13.70
2018-02-19T09:41:50.893Z,14.30
2018-02-19T09:44:18.384Z,13.63
2018-02-19T09:46:45.844Z,15.63
2018-02-19T09:49:13.293Z,14.10
2018-02-19T09:51:40.736Z,14.20
2018-02-19T09:54:08.935Z,14.90
2018-02-19T09:56:36.482Z,12.70
2018-02-19T09:59:03.909Z,13.63
2018-02-19T10:01:32.225Z,13.30
2018-02-19T10:03:59.648Z,13.70
2018-02-19T10:06:27.187Z,13.70
2018-02-19T10:08:54.632Z,14.90
2018-02-19T10:11:22.082Z,13.23
2018-02-19T10:13:49.544Z,14.47
2018-02-19T10:16:17.096Z,13.50
2018-02-19T10:18:44.565Z,14.37
2018-02-19T10:21:12.049Z,13.17
2018-02-19T10:23:39.456Z,15.00
2018-02-19T10:26:07.664Z,14.03
2018-02-19T10:28:35.100Z,13.60
2018-02-19T10:31:03.324Z,12.20
2018-02-19T10:33:30.765Z,12.90
2018-02-19T10:35:58.259Z,13.47
2018-02-19T10:38:25.699Z,13.00
2018-02-19T10:40:53.155Z,14.00
2018-02-19T10:43:20.607Z,13.60
2018-02-19T10:45:48.101Z,13.50
2018-02-19T10:48:15.544Z,13.20
2018-02-19T10:50:42.992Z,12.90
2018-02-19T10:53:10.480Z,12.40
2018-02-19T10:55:37.933Z,13.70
2018-02-19T10:58:05.375Z,13.57
2018-02-19T11:00:38.528Z,12.03
2018-02-19T11:03:06.755Z,11.80
2018-02-19T11:05:34.230Z,12.40
2018-02-19T11:08:01.681Z,15.27
2018-02-19T11:10:29.176Z,14.30
2018-02-19T11:12:56.916Z,14.57
2018-02-19T11:15:24.376Z,13.87
2018-02-19T11:17:51.831Z,13.20
2018-02-19T11:20:19.327Z,15.60
2018-02-19T11:22:46.776Z,13.40
2018-02-19T11:25:14.228Z,13.57
2018-02-19T11:27:41.675Z,14.00
2018-02-19T11:30:09.187Z,12.87
2018-02-19T11:32:36.627Z,12.83
2018-02-19T11:35:04.067Z,12.67
2018-02-19T11:37:32.353Z,20.80
2018-02-19T11:39:59.804Z,14.10
2018-02-19T11:42:27.311Z,16.70
2018-02-19T11:44:56.248Z,13.90
2018-02-19T11:47:23.708Z,12.50
2018-02-19T11:49:51.160Z,14.37
2018-02-19T11:52:19.364Z,13.70
2018-02-19T11:54:46.840Z,13.60
2018-02-19T11:57:14.428Z,11.50
2018-02-19T11:59:41.860Z,12.20
2018-02-19T12:02:09.315Z,11.90
2018-02-19T12:04:36.767Z,13.57
2018-02-19T12:07:04.232Z,13.77
2018-02-19T12:09:31.684Z,12.40
2018-02-19T12:11:59.179Z,12.73
2018-02-19T12:14:26.639Z,14.97
2018-02-19T12:16:54.123Z,12.73
2018-02-19T12:19:21.544Z,13.30
2018-02-19T12:21:49.022Z,17.80
2018-02-19T12:24:16.651Z,12.07
2018-02-19T12:26:44.144Z,12.33
2018-02-19T12:29:11.601Z,12.90
2018-02-19T12:31:39.046Z,13.07
2018-02-19T12:34:06.520Z,13.70
2018-02-19T12:36:33.970Z,11.33
2018-02-19T12:39:01.480Z,13.70
2018-02-19T12:41:29.012Z,13.10
2018-02-19T12:43:56.556Z,12.83
2018-02-19T12:46:24.010Z,14.37
2018-02-19T12:48:51.456Z,14.20
2018-02-19T12:51:18.938Z,17.30
2018-02-19T12:53:46.380Z,12.30
2018-02-19T12:56:13.884Z,12.20
2018-02-19T12:58:41.349Z,13.70
2018-02-19T13:01:08.990Z,12.90
2018-02-19T13:03:36.475Z,12.93
2018-02-19T13:06:03.908Z,12.87
2018-02-19T13:08:31.396Z,13.83
2018-02-19T13:10:58.853Z,13.40
2018-02-19T13:13:26.328Z,12.53
2018-02-19T13:15:53.852Z,12.67
2018-02-19T13:18:21.355Z,18.80
2018-02-19T13:20:48.752Z,13.37
2018-02-19T13:23:16.975Z,12.60
2018-02-19T13:25:44.444Z,13.37
2018-02-19T13:28:11.972Z,13.47
2018-02-19T13:30:39.412Z,13.57
2018-02-19T13:33:07.627Z,13.70
2018-02-19T13:35:35.126Z,13.00
2018-02-19T13:38:02.691Z,13.80
2018-02-19T13:40:30.240Z,13.80
2018-02-19T13:42:57.755Z,14.70
2018-02-19T13:45:25.262Z,13.60
2018-02-19T13:47:52.715Z,14.00
2018-02-19T13:50:20.184Z,14.57
2018-02-19T13:52:47.639Z,13.20
2018-02-19T13:55:15.079Z,12.40
2018-02-19T13:57:42.580Z,11.83
2018-02-19T14:00:10.128Z,10.50
2018-02-19T14:02:37.612Z,14.13
2018-02-19T14:05:05.221Z,13.07
2018-02-19T14:07:32.659Z,11.93
2018-02-19T14:10:00.865Z,13.17
2018-02-19T14:12:28.332Z,13.07
2018-02-19T14:14:55.781Z,12.80
2018-02-19T14:17:23.216Z,13.83
2018-02-19T14:19:51.444Z,12.07
2018-02-19T14:22:18.920Z,12.20
2018-02-19T14:24:46.372Z,12.20
2018-02-19T14:27:13.848Z,11.27
2018-02-19T14:29:41.300Z,12.53
2018-02-19T14:32:08.752Z,12.57
2018-02-19T14:34:36.200Z,13.13
2018-02-19T14:37:03.700Z,12.03
2018-02-19T14:39:31.252Z,13.80
2018-02-19T14:41:58.702Z,11.57
2018-02-19T14:44:26.142Z,11.67
2018-02-19T14:46:53.644Z,12.93
2018-02-19T14:49:21.198Z,12.03
2018-02-19T14:51:48.667Z,11.77
2018-02-19T14:54:16.150Z,11.57
2018-02-19T14:56:43.584Z,12.60
2018-02-19T14:59:11.840Z,11.67
2018-02-19T15:01:40.267Z,15.40
2018-02-19T15:04:07.823Z,14.67
2018-02-19T15:06:35.263Z,11.40
2018-02-19T15:09:02.707Z,11.80
2018-02-19T15:11:30.144Z,12.13
2018-02-19T15:13:58.364Z,11.60
2018-02-19T15:16:25.795Z,11.43
2018-02-19T15:18:53.266Z,11.60
2018-02-19T15:21:21.476Z,11.73
2018-02-19T15:23:49.061Z,12.80
2018-02-19T15:26:16.521Z,10.23
2018-02-19T15:28:44.042Z,12.20
2018-02-19T15:31:11.546Z,12.17
2018-02-19T15:33:38.987Z,11.13
2018-02-19T15:36:06.420Z,9.60
2018-02-19T15:38:33.877Z,12.77
2018-02-19T15:41:01.316Z,11.53
2018-02-19T15:43:29.555Z,10.70
2018-02-19T15:45:57.005Z,10.73
2018-02-19T15:48:24.441Z,10.70
2018-02-19T15:50:51.884Z,12.30
2018-02-19T15:53:20.112Z,12.53
2018-02-19T15:55:47.676Z,10.97
2018-02-19T15:58:15.132Z,11.67
2018-02-19T16:00:42.596Z,11.37
2018-02-19T16:03:10.032Z,11.20
2018-02-19T16:05:37.480Z,13.30
2018-02-19T16:08:05.055Z,11.93
2018-02-19T16:10:32.563Z,12.40
2018-02-19T16:13:00.001Z,14.40
2018-02-19T16:15:27.471Z,12.27
2018-02-19T16:17:55.003Z,12.73
2018-02-19T16:20:22.515Z,12.50
2018-02-19T16:22:49.956Z,10.63
2018-02-19T16:25:17.420Z,11.10
2018-02-19T16:27:44.876Z,10.43
2018-02-19T16:30:12.391Z,11.07
2018-02-19T16:32:40.588Z,10.17
2018-02-19T16:35:08.084Z,11.33
2018-02-19T16:37:35.580Z,11.07
2018-02-19T16:40:03.828Z,10.83
2018-02-19T16:42:31.282Z,11.40
2018-02-19T16:44:58.735Z,10.40
2018-02-19T16:47:26.174Z,9.90
2018-02-19T16:49:53.668Z,9.80
2018-02-19T16:52:21.110Z,10.40
2018-02-19T16:54:48.612Z,11.63
2018-02-19T16:57:16.093Z,10.40
2018-02-19T16:59:43.542Z,11.10
2018-02-19T17:02:10.984Z,11.97
2018-02-19T17:04:38.463Z,11.17
2018-02-19T17:07:05.919Z,9.67
2018-02-19T17:09:33.452Z,10.47
2018-02-19T17:12:00.980Z,10.87
2018-02-19T17:14:29.214Z,9.60
2018-02-19T17:16:56.648Z,10.70
2018-02-19T17:19:24.180Z,11.13
2018-02-19T17:21:52.372Z,9.57
2018-02-19T17:24:19.893Z,10.90
2018-02-19T17:26:47.337Z,11.53
2018-02-19T17:29:15.477Z,11.63
2018-02-19T17:31:42.959Z,10.60
2018-02-19T17:34:10.352Z,9.77
2018-02-19T17:36:37.800Z,10.87
2018-02-19T17:39:05.244Z,9.57
2018-02-19T17:41:32.716Z,10.77
2018-02-19T17:44:00.265Z,10.23
2018-02-19T17:46:27.687Z,10.53
2018-02-19T17:48:55.927Z,10.23
2018-02-19T17:51:23.405Z,9.80
2018-02-19T17:53:50.868Z,10.67
2018-02-19T17:56:18.524Z,10.87
2018-02-19T17:58:46.069Z,12.13
2018-02-19T18:01:13.519Z,11.77
2018-02-19T18:03:40.969Z,10.10
2018-02-19T18:06:08.429Z,10.30
2018-02-19T18:08:35.864Z,10.47
2018-02-19T18:11:04.082Z,11.10
2018-02-19T18:13:31.556Z,11.57
2018-02-19T18:15:59.042Z,10.07
2018-02-19T18:18:26.485Z,11.40
2018-02-19T18:20:53.933Z,12.03
2018-02-19T18:23:21.503Z,11.13
2018-02-19T18:25:48.936Z,10.87
2018-02-19T18:28:16.412Z,11.20
2018-02-19T18:30:43.988Z,12.73
2018-02-19T18:33:11.564Z,12.27
2018-02-19T18:35:39.037Z,11.90
2018-02-19T18:38:06.477Z,13.00
2018-02-19T18:40:33.928Z,13.37
2018-02-19T18:43:01.404Z,12.80
2018-02-19T18:45:28.945Z,12.70
2018-02-19T18:47:56.448Z,14.20
2018-02-19T18:50:25.596Z,12.73
2018-02-19T18:52:53.022Z,13.30
2018-02-19T18:55:21.259Z,12.90
2018-02-19T18:57:48.749Z,13.07
2018-02-19T19:00:16.992Z,13.37
2018-02-19T19:02:44.441Z,13.77
2018-02-19T19:05:12.002Z,11.33
2018-02-19T19:07:51.462Z,14.57
2018-02-19T19:10:30.620Z,12.63
2018-02-19T19:12:58.151Z,12.67
2018-02-19T19:15:25.636Z,12.33
2018-02-19T19:17:53.111Z,11.17
2018-02-19T19:20:20.538Z,11.43
2018-02-19T19:22:48.016Z,11.87
2018-02-19T19:25:16.112Z,12.53
2018-02-19T19:27:44.352Z,13.03
2018-02-19T19:30:11.996Z,12.50
2018-02-19T19:32:39.488Z,12.57
2018-02-19T19:35:07.022Z,13.53
2018-02-19T19:37:34.544Z,13.30
2018-02-19T19:40:01.980Z,12.73
2018-02-19T19:42:29.540Z,12.90
2018-02-19T19:44:56.968Z,14.33
2018-02-19T19:47:24.533Z,13.03
2018-02-19T19:49:51.960Z,13.33
2018-02-19T19:52:19.513Z,13.13
2018-02-19T19:54:46.944Z,13.07
2018-02-19T19:57:14.427Z,12.80
2018-02-19T19:59:41.863Z,12.83
2018-02-19T20:02:09.331Z,12.83
2018-02-19T20:04:36.783Z,11.53
2018-02-19T20:07:04.267Z,14.43
2018-02-19T20:09:31.712Z,15.13
2018-02-19T20:11:59.172Z,12.30
2018-02-19T20:14:26.631Z,13.27
2018-02-19T20:16:54.127Z,11.87
2018-02-19T20:19:21.749Z,12.80
2018-02-19T20:21:49.181Z,12.20
2018-02-19T20:24:16.644Z,13.57
2018-02-19T20:26:44.092Z,12.30
2018-02-19T20:29:12.335Z,10.97
2018-02-19T20:31:39.787Z,11.43
2018-02-19T20:34:07.263Z,12.10
2018-02-19T20:36:34.813Z,13.47
2018-02-19T20:39:02.250Z,13.20
2018-02-19T20:41:29.698Z,14.73
2018-02-19T20:43:57.240Z,14.60
2018-02-19T20:46:24.696Z,14.67
2018-02-19T20:48:52.207Z,14.30
2018-02-19T20:51:19.638Z,14.07
2018-02-19T20:53:47.844Z,13.60
2018-02-19T20:56:15.295Z,14.30
2018-02-19T20:58:42.730Z,14.77
2018-02-19T21:01:10.931Z,14.13
2018-02-19T21:03:38.376Z,14.10
2018-02-19T21:06:05.900Z,12.80
2018-02-19T21:08:33.451Z,13.23
2018-02-19T21:11:00.916Z,13.10
2018-02-19T21:13:28.350Z,14.10
2018-02-19T21:15:55.829Z,13.13
2018-02-19T21:18:23.272Z,12.57
2018-02-19T21:20:50.741Z,12.90
2018-02-19T21:23:18.180Z,11.90
2018-02-19T21:25:45.622Z,13.77
2018-02-19T21:28:13.828Z,14.07
2018-02-19T21:30:41.340Z,14.33
2018-02-19T21:33:08.780Z,14.17
2018-02-19T21:35:36.236Z,12.93
2018-02-19T21:38:03.776Z,12.27
2018-02-19T21:40:31.339Z,11.63
2018-02-19T21:42:58.815Z,14.83
2018-02-19T21:45:26.260Z,14.07
2018-02-19T21:47:53.756Z,13.43
2018-02-19T21:50:21.196Z,12.40
2018-02-19T21:52:48.652Z,12.93
2018-02-19T21:55:16.180Z,13.60
2018-02-19T21:57:44.396Z,11.23
2018-02-19T22:00:11.952Z,13.20
2018-02-19T22:02:39.436Z,12.67
2018-02-19T22:05:06.868Z,14.60
2018-02-19T22:07:34.356Z,13.77
2018-02-19T22:10:01.837Z,13.50
2018-02-19T22:12:29.287Z,14.00
2018-02-19T22:14:58.344Z,13.97
2018-02-19T22:17:25.787Z,13.40
2018-02-19T22:19:54.000Z,13.47
2018-02-19T22:22:21.484Z,13.80
2018-02-19T22:24:48.918Z,13.63
2018-02-19T22:27:16.359Z,14.10
2018-02-19T22:29:44.617Z,13.87
2018-02-19T22:32:12.147Z,14.30
2018-02-19T22:34:39.613Z,13.47
2018-02-19T22:37:07.083Z,13.20
2018-02-19T22:39:34.532Z,12.20
2018-02-19T22:42:01.967Z,13.87
2018-02-19T22:44:29.451Z,14.60
2018-02-19T22:46:56.902Z,13.47
2018-02-19T22:49:24.392Z,13.73
2018-02-19T22:51:51.836Z,13.03
2018-02-19T22:54:19.299Z,13.70
2018-02-19T22:56:46.783Z,12.77
2018-02-19T22:59:14.740Z,12.63
2018-02-19T23:01:42.179Z,13.30
2018-02-19T23:04:09.662Z,13.60
2018-02-19T23:06:37.106Z,12.73
2018-02-19T23:09:04.568Z,11.50
2018-02-19T23:11:32.056Z,12.90
2018-02-19T23:14:00.400Z,12.07
2018-02-19T23:16:27.860Z,13.07
2018-02-19T23:18:55.424Z,14.70
2018-02-19T23:21:22.851Z,13.67
2018-02-19T23:23:51.068Z,15.43
2018-02-19T23:26:18.533Z,13.60
2018-02-19T23:28:45.998Z,13.67
2018-02-19T23:31:13.454Z,13.40
2018-02-19T23:33:40.942Z,14.03
2018-02-19T23:36:08.512Z,13.70
2018-02-19T23:38:35.959Z,12.87
2018-02-19T23:41:03.424Z,13.80
2018-02-19T23:43:30.985Z,12.30
2018-02-19T23:45:58.521Z,15.00
2018-02-19T23:48:25.996Z,12.37
2018-02-19T23:50:53.471Z,12.20
2018-02-19T23:53:21.100Z,12.50
2018-02-19T23:55:48.565Z,13.70
2018-02-19T23:58:16.081Z,13.90
